Weather observations for the past three days for
Worthington, Worthington Municipal Airport
Metric (Imperial)
Date Time (cdt) Wind (kph) Vis. (km) Weather Sky Cond. Temperature (ºC) Relative Humidity Wind Chill (°C) Heat Index (°C) Pressure Precipitation (cm)
Air Dwpt 6 hour altimeter (cm) sea level (mb) 1 hr 3 hr 6 hr
Max. Min.
10 03:56 SW 9 16.09 Fair CLR 3.9 -4.4 55% 2 76.43 1019.7
10 02:56 SW 9 16.09 Fair CLR 3.3 -3.9 60% 1 76.38 1019.1
10 01:56 SW 6 16.09 Fair CLR 5 -3.9 53% 76.35 1018.8
10 00:56 W 6 16.09 Fair CLR 6.1 -4.4 13.9 4.4 47% 76.35 1018.7
09 23:56 NW 7 16.09 Fair CLR 6.1 -5 45% 5 76.3 1018.1
09 22:56 NW 11 16.09 Fair CLR 5 -5 49% 3 76.28 1017.9
09 21:56 NW 9 16.09 Fair CLR 8.9 -5 37% 8 76.25 1017.2
09 20:56 N 13 16.09 Fair CLR 9.4 -5 36% 8 76.17 1016.2
09 19:56 N 26 16.09 Fair CLR 12.8 -5 29% 76.1 1015.0
09 18:56 N 28 16.09 Fair CLR 13.9 -6.1 15.6 13.9 25% 76.05 1014.5
09 17:56 N 37 G 44 16.09 Fair and Breezy CLR 14.4 -4.4 27% 76 1013.7
09 16:56 N 35 G 46 16.09 Fair and Breezy CLR 15 -3.3 28% 75.95 1013.1
09 15:56 N 22 G 39 16.09 Fair CLR 15.6 -2.8 28% 75.95 1012.8
09 14:56 N 35 G 48 16.09 Fair and Breezy CLR 15.6 -2.8 28% 75.9 1012.2
09 13:56 NW 39 G 54 16.09 Fair and Breezy CLR 15 -1.7 32% 75.87 1011.9
09 12:56 N 35 G 48 16.09 Fair and Breezy CLR 15 -0.6 15 9.4 35% 75.82 1011.5
09 11:56 N 30 G 43 16.09 Fair CLR 13.9 0 39% 75.82 1011.2
09 10:56 N 33 G 44 16.09 Fair and Breezy CLR 12.8 1.7 47% 75.74 1010.4
09 09:56 N 28 G 43 16.09 A Few Clouds FEW025 11.7 4.4 61% 75.72 1010.0
09 08:56 N 41 16.09 Overcast and Breezy FEW022 OVC080 11.7 6.1 69% 75.59 1008.2
09 07:56 NW 24 G 39 16.09 Mostly Cloudy BKN100 11.7 5.6 66% 75.62 1008.2
09 06:56 W 7 16.09 Overcast OVC100 9.4 3.9 11.7 7.8 69% 9 75.54 1007.2
09 05:56 NW 17 16.09 Fair CLR 10 3.3 63% 8 75.54 1007.0
09 04:56 NW 33 G 48 16.09 Fair and Breezy CLR 9.4 -1.7 46% 6 75.49 1006.2
09 03:56 SW 22 16.09 Fair CLR 11.1 -1.7 41% 75.31 1004.0
09 02:56 SW 19 16.09 Fair CLR 10 -1.1 46% 8 75.31 1003.9
09 01:56 SW 17 16.09 Fair CLR 9.4 0 52% 7 75.39 1004.9
09 00:56 SW 9 16.09 Fair CLR 8.9 -1.1 21.1 7.8 50% 8 75.44 1005.8
08 23:56 W 13 16.09 Fair CLR 9.4 -2.2 44% 8 75.46 1006.2
08 22:56 W 13 16.09 Fair CLR 11.7 -2.2 38% 75.49 1006.5
08 21:56 NW 19 16.09 Fair CLR 13.3 -2.2 34% 75.49 1006.4
08 20:56 N 20 16.09 Fair CLR 15.6 -2.8 28% 75.41 1005.5
08 19:56 N 37 G 46 16.09 A Few Clouds and Breezy FEW100 19.4 -1.1 25% 75.36 1004.7
08 18:56 NW 28 G 39 16.09 Mostly Cloudy BKN100 21.1 0 23.3 21.1 25% 75.31 1004.0
08 17:56 NW 26 G 48 16.09 A Few Clouds FEW110 22.2 0.6 24% 75.29 1003.8
08 16:56 NW 33 G 43 16.09 A Few Clouds and Breezy FEW110 22.8 -0.6 21% 75.29 1003.8
08 15:56 W 31 G 48 16.09 Mostly Cloudy BKN110 23.3 -1.7 19% 75.31 1004.1
08 14:56 W 37 G 46 16.09 Mostly Cloudy and Breezy BKN100 22.8 -2.2 19% 75.36 1004.6
08 13:56 W 28 16.09 A Few Clouds FEW100 22.2 -2.2 19% 75.41 1005.5
08 12:56 W 22 G 35 16.09 Fair CLR 21.1 -1.1 21.1 7.8 23% 75.49 1006.6
08 11:56 W 19 G 31 16.09 Fair CLR 20 -3.3 21% 75.57 1007.6
08 10:56 W 26 16.09 Fair CLR 18.9 -3.9 21% 75.62 1008.3
08 09:56 W 24 16.09 Fair CLR 17.2 -4.4 23% 75.64 1008.8
08 08:56 W 19 16.09 Overcast OVC090 15 -4.4 26% 75.69 1009.3
08 07:56 SW 13 16.09 A Few Clouds FEW090 11.7 -3.3 35% 75.69 1009.3
08 06:56 SW 11 16.09 Mostly Cloudy BKN100 7.8 -2.8 8.3 5 47% 6 75.69 1009.5
08 05:56 S 9 16.09 Fair CLR 7.8 -4.4 42% 6 75.67 1009.4
08 04:56 S 11 16.09 Fair CLR 7.2 -4.4 44% 5 75.69 1009.6
08 03:56 SW 7 16.09 Fair CLR 7.8 -3.9 44% 7 75.69 1009.7
08 02:56 S 6 16.09 Fair CLR 7.2 -5 42% 75.72 1010.0
08 01:56 SE 6 16.09 Fair CLR 6.7 -3.3 49% 75.77 1010.7
08 00:56 Calm 16.09 Fair CLR 6.7 -5.6 16.7 6.1 41% 75.77 1010.9
07 23:56 Calm 16.09 Fair CLR 7.8 -5 40% 75.79 1011.0
07 22:56 Calm 16.09 Fair CLR 9.4 -5 36% 75.79 1011.3
07 21:56 Calm 16.09 Fair CLR 10.6 -6.1 31% 75.79 1011.2
07 20:56 NW 9 16.09 Fair CLR 12.8 -6.1 26% 75.74 1010.6
07 19:56 W 15 16.09 Fair CLR 15 -5.6 24% 75.69 1009.9
07 18:56 W 19 16.09 Fair CLR 16.7 -5 17.2 13.9 22% 75.69 1009.8
07 17:56 N 15 16.09 Fair CLR 16.7 -5.6 21% 75.69 1010.0
07 16:56 NW 19 G 28 16.09 Fair CLR 16.7 -5.6 21% 75.74 1010.5
07 15:56 Vrbl 7 16.09 Fair CLR 16.1 -5.6 22% 75.74 1010.9
07 14:56 NW 19 16.09 Fair CLR 15.6 -3.9 26% 75.79 1011.5
07 13:56 NW 20 G 28 16.09 Fair CLR 14.4 -3.9 28% 75.82 1011.8
07 12:56 NW 17 16.09 Fair CLR 13.9 -3.9 13.9 2.8 29% 75.87 1012.3
07 11:56 N 17 16.09 Fair CLR 12.8 -3.9 31% 75.87 1012.6
07 10:56 NE 17 16.09 Fair CLR 11.1 -3.3 37% 75.9 1012.8
07 09:56 E 15 16.09 Fair CLR 10 -2.2 43% 8 75.9 1012.7
07 08:56 E 17 16.09 Fair CLR 8.3 -2.8 46% 6 75.9 1012.8
07 07:56 E 19 16.09 Fair CLR 5.6 -3.3 53% 2 75.9 1013.0
07 06:56 NE 15 16.09 Mostly Cloudy BKN095 2.8 -3.3 3.9 0 65% -1 75.9 1013.2
07 05:56 NE 9 16.09 Mostly Cloudy FEW070 BKN100 1.7 -4.4 64% -1 75.9 1013.1
07 04:56 NE 13 16.09 Mostly Cloudy BKN070 BKN095 2.2 -3.9 64% -1 75.95 1013.6
Date Time (cdt) Wind (kph) Vis. (km) Weather Sky Cond. Air Dwpt Max. Min. Relative Humidity Wind Chill (°C) Heat Index (°C) altimeter (cm) sea level (mb) 1 hr 3 hr 6 hr
6 hour
Temperature (ºC) Pressure Precipitation (cm)